Time;durP1;ratioP1;P1;durP2;ratioP2;P2;SDS_P1;SDS_P2;PMS_P1;PMS_P2;Temp;Humidity;BMP_temperature;BMP_pressure;BME280_temperature;BME280_humidity;BME280_pressure;Samples;Min_cycle;Max_cycle;Signal;HPM_P1;HPM_P2
2023/03/02 00:01:07;;;;;;;;;;;2.80;99.90;;;;;;5067839;28;19939;-81
2023/03/02 00:03:34;;;;;;;;;;;2.80;99.90;;;;;;5070424;28;19928;-81
2023/03/02 00:05:59;;;;;;;;;;;2.80;99.90;;;;;;5077233;28;20036;-81
2023/03/02 00:08:26;;;;;;;;;;;2.80;99.90;;;;;;5059027;28;20000;-81
2023/03/02 00:10:53;;;;;;;;;;;2.80;99.90;;;;;;5071711;28;20373;-80
2023/03/02 00:13:19;;;;;;;;;;;2.80;99.90;;;;;;5094597;28;19971;-81
2023/03/02 00:15:45;;;;;;;;;;;2.80;99.90;;;;;;5059189;28;20034;-81
2023/03/02 00:18:10;;;;;;;;;;;2.70;99.90;;;;;;5076644;28;20473;-81
2023/03/02 00:20:36;;;;;;;;;;;2.70;99.90;;;;;;5058425;28;19995;-80
2023/03/02 00:23:01;;;;;;;;;;;2.80;99.90;;;;;;5073669;28;19934;-80
2023/03/02 00:25:27;;;;;;;;;;;2.70;99.90;;;;;;5078802;28;19924;-80
2023/03/02 00:27:53;;;;;;;;;;;2.70;99.90;;;;;;5094505;28;19931;-80
2023/03/02 00:30:18;;;;;;;;;;;2.70;99.90;;;;;;5060278;28;19925;-80
2023/03/02 00:32:44;;;;;;;;;;;2.70;99.90;;;;;;5054022;28;19924;-80
2023/03/02 00:35:10;;;;;;;;;;;2.70;99.90;;;;;;5059031;28;19924;-80
2023/03/02 00:37:36;;;;;;;;;;;2.70;99.90;;;;;;5067185;28;19929;-80
2023/03/02 00:40:06;;;;;;;;;;;2.70;99.90;;;;;;5091112;28;19928;-81
2023/03/02 00:42:32;;;;;;;;;;;2.70;99.90;;;;;;5060796;28;19932;-80
2023/03/02 00:45:00;;;;;;;;;;;2.70;99.90;;;;;;5079079;28;19928;-80
2023/03/02 00:47:28;;;;;;;;;;;2.60;99.90;;;;;;5081440;28;19928;-81
2023/03/02 00:49:54;;;;;;;;;;;2.70;99.90;;;;;;5061961;28;19924;-80
2023/03/02 00:52:20;;;;;;;;;;;2.70;99.90;;;;;;5076862;28;20018;-80
2023/03/02 00:54:46;;;;;;;;;;;2.70;99.90;;;;;;5098515;28;20369;-80
2023/03/02 00:57:11;;;;;;;;;;;2.70;99.90;;;;;;5080557;28;19967;-80
2023/03/02 00:59:37;;;;;;;;;;;2.70;99.90;;;;;;5062182;28;20119;-81
2023/03/02 01:02:03;;;;;;;;;;;2.70;99.90;;;;;;5053554;28;19925;-80
2023/03/02 01:04:30;;;;;;;;;;;2.60;99.90;;;;;;5063405;28;20031;-81
2023/03/02 01:06:56;;;;;;;;;;;2.60;99.90;;;;;;5081835;28;20015;-80
2023/03/02 01:09:22;;;;;;;;;;;2.60;99.90;;;;;;5079875;28;19978;-80
2023/03/02 01:11:48;;;;;;;;;;;2.50;99.90;;;;;;5081845;28;19924;-80
2023/03/02 01:14:14;;;;;;;;;;;2.50;99.90;;;;;;5062255;28;20437;-80
2023/03/02 01:16:40;;;;;;;;;;;2.50;99.90;;;;;;5074597;28;19925;-80
2023/03/02 01:19:06;;;;;;;;;;;2.50;99.90;;;;;;5107128;28;19930;-80
2023/03/02 01:21:31;;;;;;;;;;;2.50;99.90;;;;;;5060675;28;19955;-81
2023/03/02 01:23:57;;;;;;;;;;;2.50;99.90;;;;;;5094666;28;19928;-80
2023/03/02 01:26:22;;;;;;;;;;;2.50;99.90;;;;;;5093972;28;19983;-80
2023/03/02 01:28:54;;;;;;;;;;;2.50;99.90;;;;;;5054755;28;19932;-80
2023/03/02 01:31:23;;;;;;;;;;;2.50;99.90;;;;;;5091731;28;19935;-81
2023/03/02 01:33:49;;;;;;;;;;;2.50;99.90;;;;;;5071567;28;19931;-81
2023/03/02 01:36:15;;;;;;;;;;;2.50;99.90;;;;;;5065216;28;19928;-80
2023/03/02 01:38:40;;;;;;;;;;;2.50;99.90;;;;;;5108788;28;20662;-81
2023/03/02 01:41:06;;;;;;;;;;;2.50;99.90;;;;;;5103703;28;20437;-80
2023/03/02 01:43:32;;;;;;;;;;;2.50;99.90;;;;;;5058483;28;19989;-80
2023/03/02 01:46:03;;;;;;;;;;;2.50;99.90;;;;;;5075224;28;20351;-80
2023/03/02 01:48:43;;;;;;;;;;;2.50;99.90;;;;;;5095016;28;20069;-80
2023/03/02 01:51:14;;;;;;;;;;;2.50;99.90;;;;;;5080085;28;20291;-80
2023/03/02 01:53:45;;;;;;;;;;;2.50;99.90;;;;;;5118263;27;19946;-80
2023/03/02 01:56:14;;;;;;;;;;;2.50;99.90;;;;;;5079550;28;20412;-81
2023/03/02 01:58:40;;;;;;;;;;;2.50;99.90;;;;;;5080420;28;19924;-80
2023/03/02 02:01:14;;;;;;;;;;;2.50;99.90;;;;;;5095744;28;19970;-81
2023/03/02 02:03:43;;;;;;;;;;;2.50;99.90;;;;;;5097718;28;19928;-80
2023/03/02 02:06:09;;;;;;;;;;;2.40;99.90;;;;;;5078937;28;19935;-80
2023/03/02 02:08:35;;;;;;;;;;;2.40;99.90;;;;;;5079624;28;19928;-80
2023/03/02 02:11:00;;;;;;;;;;;2.30;99.90;;;;;;5079877;28;20400;-80
2023/03/02 02:13:26;;;;;;;;;;;2.30;99.90;;;;;;5060073;28;19947;-80
2023/03/02 02:15:52;;;;;;;;;;;2.20;99.90;;;;;;5080681;28;19924;-80
2023/03/02 02:18:17;;;;;;;;;;;2.20;99.90;;;;;;5058014;28;19928;-80
2023/03/02 02:20:44;;;;;;;;;;;2.20;99.90;;;;;;5060017;28;19956;-80
2023/03/02 02:23:33;;;;;;;;;;;2.20;99.90;;;;;;5075111;28;19925;-80
2023/03/02 02:26:17;;;;;;;;;;;2.20;99.90;;;;;;5111432;27;19924;-80
2023/03/02 02:28:47;;;;;;;;;;;2.10;99.90;;;;;;5079842;28;20282;-80
2023/03/02 02:31:15;;;;;;;;;;;2.10;99.90;;;;;;5078254;28;19989;-80
2023/03/02 02:33:43;;;;;;;;;;;2.10;99.90;;;;;;5079865;28;19924;-80
2023/03/02 02:36:18;;;;;;;;;;;2.10;99.90;;;;;;5078258;28;19925;-80
2023/03/02 02:38:46;;;;;;;;;;;2.00;99.90;;;;;;5095321;28;19954;-80
2023/03/02 02:41:17;;;;;;;;;;;2.00;99.90;;;;;;5077555;28;19944;-80
2023/03/02 02:43:42;;;;;;;;;;;2.00;99.90;;;;;;5104262;28;19931;-80
2023/03/02 02:46:09;;;;;;;;;;;2.00;99.90;;;;;;5063367;28;19927;-80
2023/03/02 02:48:35;;;;;;;;;;;2.00;99.90;;;;;;5072960;28;19928;-80
2023/03/02 02:51:01;;;;;;;;;;;2.00;99.90;;;;;;5079313;28;20097;-80
2023/03/02 02:53:32;;;;;;;;;;;2.00;99.90;;;;;;5087294;28;20395;-81
2023/03/02 02:55:58;;;;;;;;;;;1.90;99.90;;;;;;5090678;28;19930;-80
2023/03/02 02:58:24;;;;;;;;;;;1.90;99.90;;;;;;5062400;28;19979;-80
2023/03/02 03:00:50;;;;;;;;;;;1.90;99.90;;;;;;5074588;28;19950;-80
2023/03/02 03:03:29;;;;;;;;;;;1.90;99.90;;;;;;5111766;28;19924;-80
2023/03/02 03:05:59;;;;;;;;;;;1.90;99.90;;;;;;5076980;28;19924;-80
2023/03/02 03:08:40;;;;;;;;;;;1.90;99.90;;;;;;5079777;28;19924;-80
2023/03/02 03:11:06;;;;;;;;;;;1.90;99.90;;;;;;5075870;28;19945;-80
2023/03/02 03:13:32;;;;;;;;;;;1.80;99.90;;;;;;5077918;28;19928;-81
2023/03/02 03:15:59;;;;;;;;;;;1.80;99.90;;;;;;5079655;28;20011;-80
2023/03/02 03:18:24;;;;;;;;;;;1.80;99.90;;;;;;5077806;28;19931;-80
2023/03/02 03:20:50;;;;;;;;;;;1.80;99.90;;;;;;5072311;28;19924;-80
2023/03/02 03:23:15;;;;;;;;;;;1.80;99.90;;;;;;5077057;28;19924;-80
2023/03/02 03:25:41;;;;;;;;;;;1.80;99.90;;;;;;5096047;28;19934;-80
2023/03/02 03:28:06;;;;;;;;;;;1.80;99.90;;;;;;5095628;28;19980;-80
2023/03/02 03:30:32;;;;;;;;;;;1.70;99.90;;;;;;5080026;28;19924;-80
2023/03/02 03:32:57;;;;;;;;;;;1.70;99.90;;;;;;5062644;28;19924;-80
2023/03/02 03:35:23;;;;;;;;;;;1.70;99.90;;;;;;5077575;28;19924;-80
2023/03/02 03:37:50;;;;;;;;;;;1.70;99.90;;;;;;5096148;28;19931;-80
2023/03/02 03:40:16;;;;;;;;;;;1.70;99.90;;;;;;5060608;28;19987;-80
2023/03/02 03:42:41;;;;;;;;;;;1.70;99.90;;;;;;5063882;28;19932;-80
2023/03/02 03:45:10;;;;;;;;;;;1.70;99.90;;;;;;5077731;28;19985;-80
2023/03/02 03:47:35;;;;;;;;;;;1.60;99.90;;;;;;5049969;28;19932;-80
2023/03/02 03:50:01;;;;;;;;;;;1.60;99.90;;;;;;5079291;28;19938;-81
2023/03/02 03:52:30;;;;;;;;;;;1.60;99.90;;;;;;5056232;28;19931;-81
2023/03/02 03:54:59;;;;;;;;;;;1.50;99.90;;;;;;5059774;28;19924;-80
2023/03/02 03:57:25;;;;;;;;;;;1.50;99.90;;;;;;5077650;28;20286;-80
2023/03/02 03:59:51;;;;;;;;;;;1.50;99.90;;;;;;5079273;28;19988;-80
2023/03/02 04:02:16;;;;;;;;;;;1.50;99.90;;;;;;5072212;28;20366;-80
2023/03/02 04:04:42;;;;;;;;;;;1.50;99.90;;;;;;5057941;28;19932;-80
2023/03/02 04:07:08;;;;;;;;;;;1.60;99.90;;;;;;5095940;28;19924;-80
2023/03/02 04:09:36;;;;;;;;;;;1.50;99.90;;;;;;5076260;28;19931;-80
2023/03/02 04:12:02;;;;;;;;;;;1.50;99.90;;;;;;5117820;28;20465;-80
2023/03/02 04:14:28;;;;;;;;;;;1.50;99.90;;;;;;5077352;28;19924;-81
2023/03/02 04:16:54;;;;;;;;;;;1.50;99.90;;;;;;5064902;28;20414;-80
2023/03/02 04:19:20;;;;;;;;;;;1.50;99.90;;;;;;5082170;28;19950;-80
2023/03/02 04:21:47;;;;;;;;;;;1.50;99.90;;;;;;5065168;28;19953;-80
2023/03/02 04:24:13;;;;;;;;;;;1.50;99.90;;;;;;5081851;28;19924;-80
2023/03/02 04:26:40;;;;;;;;;;;1.50;99.90;;;;;;5066764;28;20014;-81
2023/03/02 04:29:06;;;;;;;;;;;1.50;99.90;;;;;;5082879;28;19931;-80
2023/03/02 04:31:32;;;;;;;;;;;1.50;99.90;;;;;;5067386;28;19928;-80
2023/03/02 04:33:58;;;;;;;;;;;1.40;99.90;;;;;;5064212;28;19928;-80
2023/03/02 04:36:24;;;;;;;;;;;1.50;99.90;;;;;;5081011;28;19961;-80
2023/03/02 04:38:50;;;;;;;;;;;1.50;99.90;;;;;;5081566;28;19978;-81
2023/03/02 04:41:16;;;;;;;;;;;1.50;99.90;;;;;;5076687;28;19970;-80
2023/03/02 04:43:42;;;;;;;;;;;1.50;99.90;;;;;;5054459;28;20179;-80
2023/03/02 04:46:08;;;;;;;;;;;1.50;99.90;;;;;;5095520;28;19925;-80
2023/03/02 04:48:34;;;;;;;;;;;1.50;99.90;;;;;;5070871;28;20018;-80
2023/03/02 04:51:00;;;;;;;;;;;1.40;99.90;;;;;;5066305;28;19924;-81
2023/03/02 04:53:26;;;;;;;;;;;1.50;99.90;;;;;;5064624;28;19925;-80
2023/03/02 04:55:52;;;;;;;;;;;1.40;99.90;;;;;;5068036;28;20011;-80
2023/03/02 04:58:17;;;;;;;;;;;1.40;99.90;;;;;;5085253;28;19928;-80
2023/03/02 05:00:43;;;;;;;;;;;1.40;99.90;;;;;;5063672;28;19928;-80
2023/03/02 05:03:09;;;;;;;;;;;1.40;99.90;;;;;;5098808;28;19946;-80
2023/03/02 05:05:34;;;;;;;;;;;1.40;99.90;;;;;;5059126;28;19930;-80
2023/03/02 05:08:00;;;;;;;;;;;1.40;99.90;;;;;;5077759;28;19928;-80
2023/03/02 05:10:26;;;;;;;;;;;1.40;99.90;;;;;;5063535;28;19967;-80
2023/03/02 05:13:01;;;;;;;;;;;1.30;99.90;;;;;;5081276;28;19959;-81
2023/03/02 05:15:28;;;;;;;;;;;1.30;99.90;;;;;;5084490;28;19924;-80
2023/03/02 05:17:54;;;;;;;;;;;1.30;99.90;;;;;;5079896;28;19930;-80
2023/03/02 05:20:20;;;;;;;;;;;1.30;99.90;;;;;;5064905;28;20359;-80
2023/03/02 05:22:46;;;;;;;;;;;1.20;99.90;;;;;;5079877;28;20336;-81
2023/03/02 05:25:12;;;;;;;;;;;1.30;99.90;;;;;;5081567;28;19961;-80
2023/03/02 05:27:37;;;;;;;;;;;1.20;99.90;;;;;;5079645;28;19928;-80
2023/03/02 05:30:04;;;;;;;;;;;1.30;99.90;;;;;;5096736;28;20378;-80
2023/03/02 05:32:29;;;;;;;;;;;1.20;99.90;;;;;;5080162;28;20315;-81
2023/03/02 05:34:55;;;;;;;;;;;1.20;99.90;;;;;;5056490;28;19946;-80
2023/03/02 05:37:21;;;;;;;;;;;1.30;99.90;;;;;;5076196;28;20007;-80
2023/03/02 05:39:46;;;;;;;;;;;1.20;99.90;;;;;;5061989;28;19928;-80
2023/03/02 05:42:12;;;;;;;;;;;1.30;99.90;;;;;;5062926;28;19962;-80
2023/03/02 05:44:37;;;;;;;;;;;1.30;99.90;;;;;;5081552;28;19924;-80
2023/03/02 05:47:03;;;;;;;;;;;1.20;99.90;;;;;;5078575;28;19925;-80
2023/03/02 05:49:28;;;;;;;;;;;1.20;99.90;;;;;;5075077;28;20367;-80
2023/03/02 05:51:54;;;;;;;;;;;1.30;99.90;;;;;;5052126;28;19940;-80
2023/03/02 05:54:20;;;;;;;;;;;1.20;99.90;;;;;;5064577;28;19962;-80
2023/03/02 05:56:45;;;;;;;;;;;1.20;99.90;;;;;;5062956;28;19939;-80
2023/03/02 05:59:11;;;;;;;;;;;1.10;99.90;;;;;;5063694;28;19924;-81
2023/03/02 06:01:37;;;;;;;;;;;1.10;99.90;;;;;;5079212;28;19924;-80
2023/03/02 06:04:03;;;;;;;;;;;1.10;99.90;;;;;;5063968;28;19980;-80
2023/03/02 06:06:28;;;;;;;;;;;1.10;99.90;;;;;;5080291;28;19982;-80
2023/03/02 06:08:54;;;;;;;;;;;1.10;99.90;;;;;;5096335;28;19931;-80
2023/03/02 06:11:19;;;;;;;;;;;1.10;99.90;;;;;;5080316;28;20348;-80
2023/03/02 06:13:45;;;;;;;;;;;1.10;99.90;;;;;;5095684;28;19924;-81
2023/03/02 06:16:10;;;;;;;;;;;1.20;99.90;;;;;;5079866;28;19924;-81
2023/03/02 06:18:36;;;;;;;;;;;1.20;99.90;;;;;;5093119;28;19924;-80
2023/03/02 06:21:02;;;;;;;;;;;1.20;99.90;;;;;;5080541;28;20002;-80
2023/03/02 06:23:28;;;;;;;;;;;1.20;99.90;;;;;;5062572;28;20319;-80
2023/03/02 06:25:54;;;;;;;;;;;1.20;99.90;;;;;;5079442;28;19975;-80
2023/03/02 06:28:20;;;;;;;;;;;1.20;99.90;;;;;;5063848;28;19935;-80
2023/03/02 06:30:47;;;;;;;;;;;1.20;99.90;;;;;;5061058;28;19959;-80
2023/03/02 06:33:14;;;;;;;;;;;1.20;99.90;;;;;;5131293;27;19969;-80
2023/03/02 06:35:40;;;;;;;;;;;1.10;99.90;;;;;;5078118;28;19960;-80
2023/03/02 06:38:06;;;;;;;;;;;1.20;99.90;;;;;;5080478;28;19928;-80
2023/03/02 06:40:32;;;;;;;;;;;1.10;99.90;;;;;;5061276;28;19984;-80
2023/03/02 06:42:59;;;;;;;;;;;1.10;99.90;;;;;;5062875;28;20023;-81
2023/03/02 06:45:25;;;;;;;;;;;1.10;99.90;;;;;;5075936;28;19932;-79
2023/03/02 06:47:51;;;;;;;;;;;1.10;99.90;;;;;;5061455;28;19924;-80
2023/03/02 06:50:16;;;;;;;;;;;1.10;99.90;;;;;;5080308;28;19928;-80
2023/03/02 06:52:42;;;;;;;;;;;1.00;99.90;;;;;;5074675;28;19967;-80
2023/03/02 06:55:08;;;;;;;;;;;0.90;99.90;;;;;;5051475;28;19970;-80
2023/03/02 06:57:33;;;;;;;;;;;1.00;99.90;;;;;;5078423;28;19928;-80
2023/03/02 07:00:00;;;;;;;;;;;1.00;99.90;;;;;;5073252;28;19925;-80
2023/03/02 07:02:25;;;;;;;;;;;1.00;99.90;;;;;;5105153;28;19924;-80
2023/03/02 07:04:51;;;;;;;;;;;1.10;99.90;;;;;;5078248;28;20096;-80
2023/03/02 07:07:16;;;;;;;;;;;1.00;99.90;;;;;;5069767;28;19924;-81
2023/03/02 07:09:42;;;;;;;;;;;1.10;99.90;;;;;;5060423;28;19939;-80
2023/03/02 07:12:07;;;;;;;;;;;1.10;99.90;;;;;;5062534;28;20385;-81
2023/03/02 07:14:34;;;;;;;;;;;1.10;99.90;;;;;;5094723;28;20152;-80
2023/03/02 07:17:00;;;;;;;;;;;1.10;99.90;;;;;;5073424;28;20374;-80
2023/03/02 07:19:25;;;;;;;;;;;1.10;99.90;;;;;;5087527;28;19924;-80
2023/03/02 07:21:51;;;;;;;;;;;1.10;99.90;;;;;;5094651;28;19967;-80
2023/03/02 07:24:16;;;;;;;;;;;1.10;99.90;;;;;;5078631;28;19924;-80
2023/03/02 07:26:42;;;;;;;;;;;1.20;99.90;;;;;;5060935;28;19932;-80
2023/03/02 07:29:07;;;;;;;;;;;1.10;99.90;;;;;;5092928;28;19924;-80
2023/03/02 07:31:33;;;;;;;;;;;1.10;99.90;;;;;;5081616;28;19931;-80
2023/03/02 07:33:59;;;;;;;;;;;1.20;99.90;;;;;;5095388;28;19931;-80
2023/03/02 07:36:25;;;;;;;;;;;1.30;99.90;;;;;;5061571;28;19974;-80
2023/03/02 07:38:50;;;;;;;;;;;1.20;99.90;;;;;;5077237;28;19970;-80
2023/03/02 07:41:16;;;;;;;;;;;1.20;99.90;;;;;;5090155;28;20283;-80
2023/03/02 07:43:41;;;;;;;;;;;1.20;99.90;;;;;;5051799;28;20292;-80
2023/03/02 07:46:07;;;;;;;;;;;1.20;99.90;;;;;;5074593;28;19928;-80
2023/03/02 07:48:33;;;;;;;;;;;1.20;99.90;;;;;;5060919;28;19981;-80
2023/03/02 07:50:59;;;;;;;;;;;1.20;99.90;;;;;;5078525;28;19924;-80
2023/03/02 07:53:25;;;;;;;;;;;1.20;99.90;;;;;;5082873;28;19934;-80
2023/03/02 07:55:51;;;;;;;;;;;1.20;99.90;;;;;;5085519;28;19955;-80
2023/03/02 07:58:16;;;;;;;;;;;1.20;99.90;;;;;;5085534;28;20379;-80
2023/03/02 08:00:42;;;;;;;;;;;1.20;99.90;;;;;;5094778;28;19939;-80
2023/03/02 08:03:07;;;;;;;;;;;1.20;99.90;;;;;;5061510;28;19924;-80
2023/03/02 08:05:33;;;;;;;;;;;1.30;99.90;;;;;;5067093;28;19924;-80
2023/03/02 08:07:59;;;;;;;;;;;1.30;99.90;;;;;;5084344;28;20397;-80
2023/03/02 08:10:24;;;;;;;;;;;1.30;99.90;;;;;;5084011;28;19928;-80
2023/03/02 08:12:50;;;;;;;;;;;1.30;99.90;;;;;;5084414;28;20077;-81
2023/03/02 08:15:15;;;;;;;;;;;1.40;99.90;;;;;;5068184;28;19924;-80
2023/03/02 08:17:41;;;;;;;;;;;1.40;99.90;;;;;;5066627;28;19928;-80
2023/03/02 08:20:07;;;;;;;;;;;1.50;99.90;;;;;;5068768;28;19924;-80
2023/03/02 08:22:33;;;;;;;;;;;1.50;99.90;;;;;;5083613;28;19924;-80
2023/03/02 08:24:58;;;;;;;;;;;1.60;99.90;;;;;;5068829;28;19924;-80
2023/03/02 08:27:24;;;;;;;;;;;1.60;99.90;;;;;;5083872;28;19957;-80
2023/03/02 08:29:49;;;;;;;;;;;1.60;99.90;;;;;;5102092;28;20189;-80
2023/03/02 08:32:15;;;;;;;;;;;1.60;99.90;;;;;;5079248;28;19935;-80
2023/03/02 08:34:40;;;;;;;;;;;1.60;99.90;;;;;;5061084;28;19928;-80
2023/03/02 08:37:06;;;;;;;;;;;1.60;99.90;;;;;;5096283;28;19932;-80
2023/03/02 08:39:32;;;;;;;;;;;1.60;99.90;;;;;;5114003;28;19935;-80
2023/03/02 08:41:57;;;;;;;;;;;1.70;99.90;;;;;;5103053;28;19971;-81
2023/03/02 08:44:23;;;;;;;;;;;1.70;99.90;;;;;;5093954;28;19932;-80
2023/03/02 08:46:49;;;;;;;;;;;1.80;99.90;;;;;;5117519;27;19992;-80
2023/03/02 08:49:15;;;;;;;;;;;1.80;99.90;;;;;;5096437;28;20011;-80
2023/03/02 08:51:40;;;;;;;;;;;1.80;99.90;;;;;;5059702;28;20018;-80
2023/03/02 08:54:06;;;;;;;;;;;1.90;99.90;;;;;;5101507;28;19924;-81
2023/03/02 08:56:33;;;;;;;;;;;2.00;99.90;;;;;;5083586;28;20010;-80
2023/03/02 08:59:00;;;;;;;;;;;2.00;99.90;;;;;;5134177;27;19925;-80
2023/03/02 09:01:28;;;;;;;;;;;2.00;99.90;;;;;;5072103;28;19936;-80
2023/03/02 09:03:58;;;;;;;;;;;2.00;99.90;;;;;;5092325;28;20138;-80
2023/03/02 09:06:23;;;;;;;;;;;2.00;99.90;;;;;;5088859;28;19924;-80
2023/03/02 09:08:49;;;;;;;;;;;2.00;99.90;;;;;;5074212;28;19928;-80
2023/03/02 09:11:15;;;;;;;;;;;2.00;99.90;;;;;;5074037;28;19924;-80
2023/03/02 09:13:41;;;;;;;;;;;2.00;99.90;;;;;;5065580;28;19960;-80
2023/03/02 09:16:07;;;;;;;;;;;2.10;99.90;;;;;;5081257;28;19924;-81
2023/03/02 09:18:33;;;;;;;;;;;2.10;99.90;;;;;;5073219;28;19928;-80
2023/03/02 09:20:58;;;;;;;;;;;2.10;99.90;;;;;;5064734;28;19971;-82
2023/03/02 09:23:24;;;;;;;;;;;2.10;99.90;;;;;;5080441;28;19924;-81
2023/03/02 09:25:50;;;;;;;;;;;2.10;99.90;;;;;;5077216;28;19996;-81
2023/03/02 09:28:16;;;;;;;;;;;2.20;99.90;;;;;;5075999;28;19924;-81
2023/03/02 09:30:46;;;;;;;;;;;2.20;99.90;;;;;;5063285;28;20024;-81
2023/03/02 09:33:12;;;;;;;;;;;2.20;99.90;;;;;;5081618;28;19932;-81
2023/03/02 09:35:38;;;;;;;;;;;2.30;99.90;;;;;;5062494;28;19924;-81
2023/03/02 09:38:03;;;;;;;;;;;2.30;99.90;;;;;;5064834;28;19925;-81
2023/03/02 09:40:31;;;;;;;;;;;2.40;99.90;;;;;;5080037;28;19928;-81
2023/03/02 09:43:12;;;;;;;;;;;2.30;99.90;;;;;;5065478;28;19931;-82
2023/03/02 09:45:46;;;;;;;;;;;2.50;99.90;;;;;;5097948;28;19928;-81
2023/03/02 09:48:12;;;;;;;;;;;2.50;99.90;;;;;;5066139;28;19928;-82
2023/03/02 09:50:49;;;;;;;;;;;2.60;99.90;;;;;;5080720;28;19931;-81
2023/03/02 09:53:27;;;;;;;;;;;2.70;99.90;;;;;;5065655;28;19924;-81
2023/03/02 09:55:54;;;;;;;;;;;2.80;99.90;;;;;;5080315;28;19928;-81
2023/03/02 09:58:24;;;;;;;;;;;2.90;99.90;;;;;;5084314;28;20322;-81
2023/03/02 10:00:50;;;;;;;;;;;3.00;99.90;;;;;;5078720;28;20302;-82
2023/03/02 10:03:24;;;;;;;;;;;3.00;99.90;;;;;;5080959;28;19934;-81
2023/03/02 10:05:52;;;;;;;;;;;3.10;99.90;;;;;;5078980;28;19959;-81
2023/03/02 10:08:21;;;;;;;;;;;3.10;99.90;;;;;;5080646;28;19935;-81
2023/03/02 10:11:01;;;;;;;;;;;3.10;99.90;;;;;;5080102;28;19938;-81
2023/03/02 10:13:33;;;;;;;;;;;3.10;99.90;;;;;;5078713;28;19928;-81
2023/03/02 10:16:17;;;;;;;;;;;3.10;99.90;;;;;;5097009;28;19931;-81
2023/03/02 10:19:09;;;;;;;;;;;3.10;99.90;;;;;;5078698;28;19928;-81
2023/03/02 10:21:36;;;;;;;;;;;3.20;99.90;;;;;;5076239;28;19924;-82
2023/03/02 10:24:01;;;;;;;;;;;3.10;99.90;;;;;;5072619;28;19928;-79
2023/03/02 10:26:47;;;;;;;;;;;3.00;99.90;;;;;;5089469;28;19928;-83
2023/03/02 10:29:15;;;;;;;;;;;3.10;99.90;;;;;;5113258;27;19928;-82
2023/03/02 10:31:42;;;;;;;;;;;3.10;99.90;;;;;;5107239;28;19924;-82
2023/03/02 10:34:10;;;;;;;;;;;3.10;99.90;;;;;;5073506;28;19924;-81
2023/03/02 10:36:40;;;;;;;;;;;3.20;99.90;;;;;;5076604;28;19931;-82
2023/03/02 10:39:10;;;;;;;;;;;3.20;99.90;;;;;;5129534;27;19924;-82
2023/03/02 10:41:39;;;;;;;;;;;3.30;99.90;;;;;;5084335;28;19925;-82
2023/03/02 10:44:18;;;;;;;;;;;3.30;99.90;;;;;;5073526;28;19946;-82
2023/03/02 10:46:45;;;;;;;;;;;3.30;99.90;;;;;;5081454;28;19924;-82
2023/03/02 10:49:30;;;;;;;;;;;3.40;99.90;;;;;;5080792;28;19950;-81
2023/03/02 10:52:10;;;;;;;;;;;3.50;99.90;;;;;;5096943;28;19931;-81
2023/03/02 10:54:36;;;;;;;;;;;3.80;99.90;;;;;;5077230;28;19935;-82
2023/03/02 10:57:03;;;;;;;;;;;4.10;99.90;;;;;;5087273;28;20352;-82
2023/03/02 10:59:43;;;;;;;;;;;4.30;99.90;;;;;;5081368;28;19999;-81
2023/03/02 11:02:09;;;;;;;;;;;4.40;99.90;;;;;;5080199;28;19924;-81
2023/03/02 11:04:34;;;;;;;;;;;4.50;99.90;;;;;;5079637;28;19970;-82
2023/03/02 11:07:13;;;;;;;;;;;4.50;99.90;;;;;;5079955;28;19931;-81
2023/03/02 11:09:39;;;;;;;;;;;4.50;99.90;;;;;;5076885;28;19930;-82
2023/03/02 11:12:12;;;;;;;;;;;4.60;99.90;;;;;;5062922;28;20455;-82
2023/03/02 11:14:37;;;;;;;;;;;4.50;99.90;;;;;;5077939;28;19924;-82
2023/03/02 11:17:21;;;;;;;;;;;4.60;99.90;;;;;;5059912;28;19924;-81
2023/03/02 11:19:46;;;;;;;;;;;4.70;99.90;;;;;;5085582;28;19931;-82
2023/03/02 11:22:22;;;;;;;;;;;4.70;99.90;;;;;;5079080;28;19928;-80
2023/03/02 11:24:52;;;;;;;;;;;4.70;99.90;;;;;;5092652;28;19935;-81
2023/03/02 11:27:23;;;;;;;;;;;4.70;99.90;;;;;;5071108;28;19987;-81
2023/03/02 11:30:12;;;;;;;;;;;4.70;99.90;;;;;;5069973;28;20019;-82
2023/03/02 11:32:57;;;;;;;;;;;4.70;99.90;;;;;;5110106;28;19964;-81
2023/03/02 11:35:25;;;;;;;;;;;4.80;99.90;;;;;;5114832;27;19928;-81
2023/03/02 11:37:53;;;;;;;;;;;4.80;99.90;;;;;;5072852;28;19924;-81
2023/03/02 11:40:30;;;;;;;;;;;4.90;99.90;;;;;;5077242;28;19924;-81
2023/03/02 11:42:57;;;;;;;;;;;4.70;99.90;;;;;;5069820;28;20406;-82
2023/03/02 11:45:30;;;;;;;;;;;4.80;99.90;;;;;;5078495;28;19939;-81
2023/03/02 11:48:00;;;;;;;;;;;4.70;99.90;;;;;;5094218;28;20176;-81
2023/03/02 11:50:26;;;;;;;;;;;4.60;99.90;;;;;;5095843;28;19924;-82
2023/03/02 11:52:54;;;;;;;;;;;4.60;99.90;;;;;;5093668;28;20104;-81
2023/03/02 11:55:24;;;;;;;;;;;4.70;99.90;;;;;;5079048;28;19939;-81
2023/03/02 11:57:54;;;;;;;;;;;4.70;99.90;;;;;;5077693;28;19938;-81
2023/03/02 12:00:19;;;;;;;;;;;4.70;99.90;;;;;;5070225;28;19924;-81
2023/03/02 12:02:45;;;;;;;;;;;4.80;99.90;;;;;;5078394;28;19934;-82
2023/03/02 12:05:24;;;;;;;;;;;5.00;99.90;;;;;;5065712;28;20016;-81
2023/03/02 12:07:56;;;;;;;;;;;5.10;99.90;;;;;;5089316;28;19928;-81
2023/03/02 12:10:30;;;;;;;;;;;5.10;99.90;;;;;;5054939;28;19950;-81
2023/03/02 12:13:02;;;;;;;;;;;5.00;99.90;;;;;;5071603;28;19988;-81
2023/03/02 12:15:28;;;;;;;;;;;5.00;99.90;;;;;;5067950;28;19969;-81
2023/03/02 12:17:53;;;;;;;;;;;5.20;99.90;;;;;;5071433;28;19924;-81
2023/03/02 12:20:19;;;;;;;;;;;5.50;99.90;;;;;;5055051;28;19991;-80
2023/03/02 12:22:44;;;;;;;;;;;5.60;99.90;;;;;;5070186;28;19924;-81
2023/03/02 12:25:19;;;;;;;;;;;5.50;99.90;;;;;;5065821;28;20019;-81
2023/03/02 12:27:46;;;;;;;;;;;5.40;99.90;;;;;;5086886;28;19924;-81
2023/03/02 12:30:15;;;;;;;;;;;5.50;99.90;;;;;;5074723;28;19932;-81
2023/03/02 12:32:47;;;;;;;;;;;5.80;99.90;;;;;;5075681;28;19924;-81
2023/03/02 12:35:14;;;;;;;;;;;6.00;99.90;;;;;;5073622;28;20011;-82
2023/03/02 12:37:48;;;;;;;;;;;5.90;99.90;;;;;;5078965;28;19939;-81
2023/03/02 12:40:35;;;;;;;;;;;5.80;99.90;;;;;;5096853;28;20499;-81
2023/03/02 12:43:24;;;;;;;;;;;5.90;99.90;;;;;;5068651;28;19975;-81
2023/03/02 12:46:08;;;;;;;;;;;6.10;99.90;;;;;;5076457;28;19924;-81
2023/03/02 12:48:40;;;;;;;;;;;6.20;99.90;;;;;;5080681;28;19924;-82
2023/03/02 12:51:12;;;;;;;;;;;6.20;99.90;;;;;;5089181;28;20224;-81
2023/03/02 12:53:38;;;;;;;;;;;6.10;99.90;;;;;;5081686;28;19924;-81
2023/03/02 12:56:06;;;;;;;;;;;5.90;99.90;;;;;;5081128;28;20275;-81
2023/03/02 12:58:32;;;;;;;;;;;6.00;99.90;;;;;;5074568;28;19959;-81
2023/03/02 13:00:59;;;;;;;;;;;6.00;99.90;;;;;;5046737;28;19956;-81
2023/03/02 13:03:26;;;;;;;;;;;6.00;99.90;;;;;;5068443;28;19946;-81
2023/03/02 13:06:03;;;;;;;;;;;5.90;99.90;;;;;;5080301;28;20304;-81
2023/03/02 13:08:29;;;;;;;;;;;5.80;99.90;;;;;;5081660;28;20003;-81
2023/03/02 13:11:00;;;;;;;;;;;5.70;99.90;;;;;;5132524;27;20216;-81
2023/03/02 13:13:31;;;;;;;;;;;5.80;99.90;;;;;;5080378;28;20003;-81
2023/03/02 13:15:58;;;;;;;;;;;5.90;99.90;;;;;;5082300;28;20404;-81
2023/03/02 13:18:30;;;;;;;;;;;5.90;99.90;;;;;;5079719;28;19924;-82
2023/03/02 13:20:57;;;;;;;;;;;5.80;99.90;;;;;;5082079;28;20001;-81
2023/03/02 13:23:23;;;;;;;;;;;5.80;99.90;;;;;;5096879;28;19928;-81
2023/03/02 13:25:51;;;;;;;;;;;5.80;99.90;;;;;;5097799;28;20033;-81
2023/03/02 13:28:29;;;;;;;;;;;5.70;99.90;;;;;;5081576;28;19924;-81
2023/03/02 13:31:05;;;;;;;;;;;5.60;99.90;;;;;;5079763;28;19928;-81
2023/03/02 13:33:32;;;;;;;;;;;5.60;99.90;;;;;;5081893;28;19939;-81
2023/03/02 13:35:58;;;;;;;;;;;5.50;99.90;;;;;;5080117;28;20345;-81
2023/03/02 13:38:36;;;;;;;;;;;5.50;99.90;;;;;;5097976;28;19928;-80
2023/03/02 13:41:02;;;;;;;;;;;5.40;99.90;;;;;;5065237;28;20417;-81
2023/03/02 13:43:28;;;;;;;;;;;5.50;99.90;;;;;;5060027;28;19925;-81
2023/03/02 13:46:12;;;;;;;;;;;5.60;99.90;;;;;;5126301;27;19928;-75
2023/03/02 13:48:38;;;;;;;;;;;5.70;99.90;;;;;;5078235;28;19988;-75
2023/03/02 13:51:15;;;;;;;;;;;5.80;99.90;;;;;;5082995;28;20045;-81
2023/03/02 13:53:49;;;;;;;;;;;5.70;99.90;;;;;;5080971;28;19924;-81
2023/03/02 13:56:16;;;;;;;;;;;5.60;99.90;;;;;;5079470;28;19924;-80
2023/03/02 13:58:41;;;;;;;;;;;5.50;99.90;;;;;;5097838;28;19959;-80
2023/03/02 14:01:07;;;;;;;;;;;5.50;99.90;;;;;;5078010;28;19924;-81
2023/03/02 14:03:33;;;;;;;;;;;5.40;99.90;;;;;;5068366;28;19924;-81
2023/03/02 14:05:58;;;;;;;;;;;5.50;99.90;;;;;;5062491;28;19932;-81
2023/03/02 14:08:24;;;;;;;;;;;5.50;99.90;;;;;;5080310;28;19950;-81
2023/03/02 14:10:56;;;;;;;;;;;5.50;99.90;;;;;;5080612;28;19924;-81
2023/03/02 14:13:41;;;;;;;;;;;5.50;99.90;;;;;;5077742;28;19931;-81
2023/03/02 14:16:14;;;;;;;;;;;5.50;99.90;;;;;;5073093;28;19945;-81
2023/03/02 14:18:40;;;;;;;;;;;5.60;99.90;;;;;;5095724;28;20007;-81
2023/03/02 14:21:11;;;;;;;;;;;5.60;99.90;;;;;;5080482;28;19928;-81
2023/03/02 14:23:39;;;;;;;;;;;5.60;99.90;;;;;;5079343;28;19924;-81
2023/03/02 14:26:24;;;;;;;;;;;5.60;99.90;;;;;;5096014;28;19935;-81
2023/03/02 14:28:49;;;;;;;;;;;5.70;99.90;;;;;;5097186;28;19950;-81
2023/03/02 14:31:17;;;;;;;;;;;5.80;99.90;;;;;;5062104;28;19924;-81
2023/03/02 14:33:43;;;;;;;;;;;5.90;99.90;;;;;;5080319;28;19928;-81
2023/03/02 14:36:12;;;;;;;;;;;6.10;99.90;;;;;;5059153;28;19925;-81